createdAt,value
2018-11-21T00:02:04.597Z,73.80
2018-11-21T00:04:53.783Z,74.50
2018-11-21T00:07:42.380Z,73.00
2018-11-21T00:10:31.345Z,72.80
2018-11-21T00:13:20.160Z,72.90
2018-11-21T00:16:09.172Z,72.70
2018-11-21T00:19:00.738Z,72.80
2018-11-21T00:21:46.728Z,73.00
2018-11-21T00:24:35.520Z,73.80
2018-11-21T00:27:24.076Z,72.30
2018-11-21T00:30:14.606Z,72.30
2018-11-21T00:33:03.733Z,72.70
2018-11-21T00:35:52.493Z,73.60
2018-11-21T00:38:41.396Z,73.70
2018-11-21T00:41:30.682Z,74.50
2018-11-21T00:44:19.352Z,74.50
2018-11-21T00:47:08.008Z,74.30
2018-11-21T00:49:56.581Z,75.00
2018-11-21T00:52:45.551Z,73.50
2018-11-21T00:55:34.354Z,73.00
2018-11-21T00:58:23.297Z,73.10
2018-11-21T01:01:11.965Z,75.30
2018-11-21T01:04:00.515Z,76.10
2018-11-21T01:06:49.436Z,75.10
2018-11-21T01:09:37.989Z,73.80
2018-11-21T01:12:26.631Z,73.00
2018-11-21T01:15:15.283Z,72.70
2018-11-21T01:18:04.259Z,71.50
2018-11-21T01:20:52.978Z,70.90
2018-11-21T01:23:41.701Z,71.70
2018-11-21T01:26:30.362Z,72.00
2018-11-21T01:29:19.210Z,73.10
2018-11-21T01:32:07.981Z,71.90
2018-11-21T01:34:56.822Z,72.00
2018-11-21T01:37:45.814Z,72.20
2018-11-21T01:40:34.595Z,72.90
2018-11-21T01:43:23.367Z,74.20
2018-11-21T01:46:12.070Z,74.90
2018-11-21T01:49:00.980Z,74.10
2018-11-21T01:51:49.803Z,73.10
2018-11-21T01:54:38.668Z,73.00
2018-11-21T01:57:27.365Z,73.80
2018-11-21T02:00:16.264Z,73.40
2018-11-21T02:03:05.121Z,73.00
2018-11-21T02:05:53.944Z,72.30
2018-11-21T02:08:43.035Z,72.00
2018-11-21T02:11:31.945Z,72.30
2018-11-21T02:14:21.235Z,71.90
2018-11-21T02:17:10.196Z,72.30
2018-11-21T02:22:47.207Z,71.90
2018-11-21T02:25:35.876Z,71.00
2018-11-21T02:28:24.839Z,71.80
2018-11-21T02:31:13.925Z,72.40
2018-11-21T02:34:02.697Z,72.50
2018-11-21T02:36:51.953Z,71.90
2018-11-21T02:39:40.536Z,71.70
2018-11-21T02:42:29.197Z,70.90
2018-11-21T02:45:17.972Z,70.70
2018-11-21T02:48:07.171Z,70.10
2018-11-21T02:50:56.143Z,70.80
2018-11-21T02:53:45.282Z,71.60
2018-11-21T02:56:53.588Z,72.10
2018-11-21T02:59:45.467Z,72.60
2018-11-21T03:02:34.375Z,73.60
2018-11-21T03:05:23.248Z,73.90
2018-11-21T03:08:12.254Z,72.40
2018-11-21T03:11:01.035Z,72.10
2018-11-21T03:13:49.820Z,72.70
2018-11-21T03:16:38.677Z,71.30
2018-11-21T03:19:27.467Z,72.10
2018-11-21T03:22:16.162Z,73.40
2018-11-21T03:25:04.875Z,72.10
2018-11-21T03:27:53.605Z,72.80
2018-11-21T03:30:42.425Z,72.50
2018-11-21T03:36:21.484Z,73.60
2018-11-21T03:39:11.189Z,73.90
2018-11-21T03:42:01.931Z,74.20
2018-11-21T03:44:50.467Z,74.90
2018-11-21T03:47:39.074Z,75.20
2018-11-21T03:50:27.911Z,75.00
2018-11-21T03:53:16.715Z,75.70
2018-11-21T03:56:05.612Z,73.80
2018-11-21T03:58:54.494Z,71.00
2018-11-21T04:04:31.961Z,70.80
2018-11-21T04:07:20.727Z,71.70
2018-11-21T04:10:10.577Z,70.60
2018-11-21T04:12:59.487Z,70.80
2018-11-21T04:15:48.412Z,71.90
2018-11-21T04:18:37.053Z,72.00
2018-11-21T04:21:25.731Z,72.40
2018-11-21T04:24:14.739Z,73.30
2018-11-21T04:27:03.789Z,73.80
2018-11-21T04:29:52.369Z,74.00
2018-11-21T04:32:41.382Z,74.50
2018-11-21T04:35:30.313Z,75.20
2018-11-21T04:38:21.377Z,75.80
2018-11-21T04:41:08.388Z,76.80
2018-11-21T04:44:00.030Z,78.30
2018-11-21T04:46:49.067Z,79.60
2018-11-21T04:49:37.830Z,80.70
2018-11-21T04:52:26.358Z,81.40
2018-11-21T04:55:15.158Z,82.00
2018-11-21T04:58:04.210Z,82.70
2018-11-21T05:00:55.614Z,82.50
2018-11-21T05:03:44.401Z,82.60
2018-11-21T05:06:33.286Z,83.50
2018-11-21T05:09:22.227Z,84.50
2018-11-21T05:12:11.523Z,85.30
2018-11-21T05:15:00.544Z,86.00
2018-11-21T05:17:49.425Z,86.80
2018-11-21T05:20:38.609Z,86.80
2018-11-21T05:23:19.901Z,87.20
2018-11-21T05:26:01.748Z,87.40
2018-11-21T05:28:43.372Z,86.90
2018-11-21T05:31:24.860Z,86.50
2018-11-21T05:34:05.786Z,87.30
2018-11-21T05:36:47.489Z,87.10
2018-11-21T05:39:28.610Z,87.30
2018-11-21T05:42:10.223Z,85.70
2018-11-21T05:44:51.054Z,86.50
2018-11-21T05:47:32.586Z,85.70
2018-11-21T05:50:14.793Z,86.70
2018-11-21T05:52:56.325Z,85.60
2018-11-21T05:55:37.688Z,85.40
2018-11-21T05:58:18.513Z,95.20
2018-11-21T06:04:11.373Z,84.80
2018-11-21T06:06:52.480Z,85.50
2018-11-21T06:09:33.877Z,84.60
2018-11-21T06:12:15.003Z,84.90
2018-11-21T06:14:56.328Z,99.90
2018-11-21T06:17:37.798Z,83.70
2018-11-21T06:23:31.727Z,83.80
2018-11-21T06:26:12.783Z,83.60
2018-11-21T06:28:54.344Z,83.20
2018-11-21T06:34:47.888Z,83.20
2018-11-21T06:37:29.340Z,93.50
2018-11-21T06:40:11.136Z,84.10
2018-11-21T06:42:54.586Z,83.70
2018-11-21T06:45:35.555Z,99.30
2018-11-21T06:51:14.585Z,84.00
2018-11-21T06:57:03.996Z,84.50
2018-11-21T06:59:44.973Z,84.60
2018-11-21T07:02:26.011Z,85.10
2018-11-21T07:08:06.002Z,85.10
2018-11-21T07:10:46.685Z,92.80
2018-11-21T07:19:31.015Z,86.50
2018-11-21T07:22:12.509Z,86.60
2018-11-21T07:24:53.849Z,86.40
2018-11-21T07:33:46.637Z,86.60
2018-11-21T07:36:26.018Z,87.30
2018-11-21T07:39:06.575Z,87.20
2018-11-21T07:41:48.175Z,86.50
2018-11-21T07:44:29.198Z,86.60
2018-11-21T07:47:10.156Z,86.40
2018-11-21T07:52:49.363Z,86.10
2018-11-21T07:58:28.477Z,86.20
2018-11-21T08:10:38.227Z,86.20
2018-11-21T08:13:41.516Z,87.00
2018-11-21T08:16:41.169Z,86.90
2018-11-21T08:19:37.089Z,86.30
2018-11-21T08:22:37.203Z,86.70
2018-11-21T08:25:37.399Z,86.80
2018-11-21T08:28:36.836Z,86.50
2018-11-21T08:31:18.226Z,86.90
2018-11-21T08:33:59.650Z,87.60
2018-11-21T08:36:41.152Z,87.50
2018-11-21T08:39:22.105Z,87.30
2018-11-21T08:42:03.450Z,86.80
2018-11-21T08:44:44.153Z,87.50
2018-11-21T08:47:25.762Z,87.00
2018-11-21T08:50:06.707Z,86.90
2018-11-21T08:52:48.555Z,86.90
2018-11-21T08:55:29.912Z,87.40
2018-11-21T08:58:11.159Z,87.20
2018-11-21T09:00:52.639Z,86.00
2018-11-21T09:03:33.745Z,86.10
2018-11-21T09:06:15.025Z,86.70
2018-11-21T09:08:56.665Z,86.80
2018-11-21T09:11:37.713Z,87.10
2018-11-21T09:14:18.824Z,86.30
2018-11-21T09:17:00.124Z,86.60
2018-11-21T09:19:41.471Z,86.40
2018-11-21T09:22:22.502Z,93.90
2018-11-21T09:25:03.754Z,86.40
2018-11-21T09:27:44.944Z,86.60
2018-11-21T09:30:26.462Z,86.80
2018-11-21T09:33:07.522Z,87.00
2018-11-21T09:35:48.179Z,87.70
2018-11-21T09:38:29.578Z,87.90
2018-11-21T09:41:10.771Z,86.90
2018-11-21T09:43:52.070Z,86.90
2018-11-21T09:46:32.958Z,86.90
2018-11-21T09:51:57.376Z,88.80
2018-11-21T09:54:38.568Z,87.50
2018-11-21T09:57:53.620Z,85.70
2018-11-21T10:00:34.709Z,86.40
2018-11-21T10:03:19.287Z,85.70
2018-11-21T10:06:00.481Z,86.60
2018-11-21T10:08:46.068Z,86.60
2018-11-21T10:11:27.992Z,86.70
2018-11-21T10:14:08.817Z,86.70
2018-11-21T10:16:50.216Z,99.90
2018-11-21T10:19:31.832Z,84.90
2018-11-21T10:25:12.104Z,86.10
2018-11-21T10:27:52.994Z,92.20
2018-11-21T10:33:46.777Z,86.30
2018-11-21T10:39:10.702Z,87.10
2018-11-21T10:41:52.530Z,86.30
2018-11-21T10:47:32.513Z,92.00
2018-11-21T10:53:26.047Z,85.70
2018-11-21T10:56:07.198Z,86.50
2018-11-21T10:58:49.078Z,86.40
2018-11-21T11:01:49.465Z,86.30
2018-11-21T11:04:55.203Z,86.60
2018-11-21T11:07:55.373Z,86.30
2018-11-21T11:10:52.721Z,87.00
2018-11-21T11:25:51.663Z,85.50
2018-11-21T11:28:54.911Z,85.30
2018-11-21T11:35:07.668Z,85.10
2018-11-21T11:41:10.348Z,85.60
2018-11-21T11:44:10.753Z,85.40
2018-11-21T11:47:10.349Z,85.60
2018-11-21T11:50:06.039Z,85.70
2018-11-21T11:56:14.134Z,86.00
2018-11-21T11:59:16.956Z,86.30
2018-11-21T12:02:19.857Z,86.10
2018-11-21T12:05:20.176Z,85.40
2018-11-21T12:08:20.202Z,86.20
2018-11-21T12:11:22.308Z,87.00
2018-11-21T12:14:20.485Z,86.10
2018-11-21T12:20:09.605Z,86.60
2018-11-21T12:23:09.969Z,85.90
2018-11-21T12:26:10.628Z,86.20
2018-11-21T12:38:23.008Z,86.20
2018-11-21T12:41:23.343Z,86.20
2018-11-21T12:44:25.998Z,85.90
2018-11-21T12:47:27.479Z,86.00
2018-11-21T12:50:27.300Z,86.00
2018-11-21T12:53:33.626Z,86.80
2018-11-21T12:56:33.872Z,86.10
2018-11-21T12:59:33.345Z,86.80
2018-11-21T13:02:32.940Z,86.50
2018-11-21T13:05:33.219Z,86.50
2018-11-21T13:11:31.645Z,85.10
2018-11-21T13:14:31.718Z,84.80
2018-11-21T13:17:34.447Z,85.50
2018-11-21T13:20:37.573Z,85.10
2018-11-21T13:23:37.263Z,85.90
2018-11-21T13:26:38.635Z,85.10
2018-11-21T13:29:44.344Z,85.10
2018-11-21T13:32:43.979Z,85.50
2018-11-21T13:45:04.999Z,84.30
2018-11-21T13:48:05.241Z,84.30
2018-11-21T13:51:05.082Z,84.40
2018-11-21T13:53:55.298Z,85.00
2018-11-21T13:56:36.388Z,85.60
2018-11-21T13:59:18.269Z,85.60
2018-11-21T14:01:59.616Z,84.90
2018-11-21T14:04:40.518Z,85.60
2018-11-21T14:07:21.692Z,85.00
2018-11-21T14:10:03.395Z,85.60
2018-11-21T14:12:44.947Z,84.90
2018-11-21T14:15:26.228Z,85.60
2018-11-21T14:18:06.988Z,85.60
2018-11-21T14:20:48.277Z,85.10
2018-11-21T14:23:32.717Z,85.10
2018-11-21T14:26:13.988Z,85.10
2018-11-21T14:28:55.106Z,85.00
2018-11-21T14:31:36.093Z,84.80
2018-11-21T14:34:17.676Z,86.50
2018-11-21T14:36:59.065Z,99.70
2018-11-21T14:39:40.174Z,84.90
2018-11-21T14:45:19.593Z,84.90
2018-11-21T14:48:00.770Z,98.40
2018-11-21T14:50:41.989Z,88.50
2018-11-21T14:59:24.277Z,85.40
2018-11-21T15:02:06.026Z,84.80
2018-11-21T15:07:49.031Z,85.50
2018-11-21T15:10:29.728Z,85.30
2018-11-21T15:13:11.289Z,99.90
2018-11-21T15:19:05.216Z,85.10
2018-11-21T15:21:46.122Z,85.40
2018-11-21T15:24:27.635Z,85.70
2018-11-21T15:27:09.404Z,91.00
2018-11-21T15:32:51.656Z,85.40
2018-11-21T15:35:33.409Z,98.10
2018-11-21T15:38:14.837Z,99.90
2018-11-21T15:44:08.391Z,86.30
2018-11-21T15:46:49.940Z,86.20
2018-11-21T15:49:31.234Z,85.90
2018-11-21T15:52:12.303Z,86.10
2018-11-21T16:00:44.784Z,86.00
2018-11-21T16:03:26.000Z,86.60
2018-11-21T16:09:20.115Z,86.30
2018-11-21T16:12:01.780Z,94.00
2018-11-21T16:14:42.625Z,86.40
2018-11-21T16:17:23.497Z,86.60
2018-11-21T16:29:00.470Z,86.50
2018-11-21T16:31:41.942Z,86.50
2018-11-21T16:34:23.023Z,97.40
2018-11-21T16:37:04.450Z,85.80
2018-11-21T16:42:32.134Z,85.30
2018-11-21T16:48:12.400Z,84.70
2018-11-21T16:50:53.887Z,84.50
2018-11-21T16:56:33.787Z,84.60
2018-11-21T16:59:15.229Z,93.50
2018-11-21T17:05:09.034Z,84.20
2018-11-21T17:07:50.885Z,85.00
2018-11-21T17:10:32.608Z,84.60
2018-11-21T17:16:26.343Z,85.00
2018-11-21T17:19:08.109Z,85.00
2018-11-21T17:21:49.078Z,84.90
2018-11-21T17:24:33.227Z,84.80
2018-11-21T17:27:14.803Z,84.90
2018-11-21T17:32:55.099Z,85.80
2018-11-21T17:35:36.766Z,99.60
2018-11-21T17:41:30.545Z,86.50
2018-11-21T17:44:12.279Z,87.00
2018-11-21T17:46:53.173Z,87.00
2018-11-21T17:49:34.897Z,88.70
2018-11-21T17:55:22.038Z,97.40
2018-11-21T17:58:04.757Z,87.60
2018-11-21T18:00:47.093Z,87.70
2018-11-21T18:06:40.557Z,88.00
2018-11-21T18:09:21.755Z,88.70
2018-11-21T18:12:03.257Z,88.80
2018-11-21T18:14:45.054Z,89.40
2018-11-21T18:20:24.800Z,89.80
2018-11-21T18:26:05.596Z,98.10
2018-11-21T18:28:46.596Z,88.70
2018-11-21T18:31:28.118Z,89.20
2018-11-21T18:34:09.844Z,90.00
2018-11-21T18:36:50.926Z,88.80
2018-11-21T18:39:32.100Z,88.50
2018-11-21T18:42:14.659Z,88.20
2018-11-21T18:44:56.187Z,88.10
2018-11-21T18:47:37.249Z,88.30
2018-11-21T18:50:19.253Z,88.20
2018-11-21T18:53:01.751Z,88.50
2018-11-21T18:55:43.204Z,88.30
2018-11-21T19:01:28.178Z,88.20
2018-11-21T19:04:09.831Z,88.30
2018-11-21T19:06:51.575Z,88.20
2018-11-21T19:09:32.409Z,88.20
2018-11-21T19:15:16.919Z,97.60
2018-11-21T19:17:58.711Z,88.40
2018-11-21T19:20:39.853Z,88.40
2018-11-21T19:23:24.492Z,89.10
2018-11-21T19:26:06.388Z,89.10
2018-11-21T19:28:48.042Z,88.70
2018-11-21T19:31:29.839Z,88.50
2018-11-21T19:34:11.006Z,88.70
2018-11-21T19:36:52.395Z,88.50
2018-11-21T19:39:33.335Z,89.30
2018-11-21T19:42:15.251Z,89.10
2018-11-21T19:44:56.509Z,89.00
2018-11-21T19:50:20.278Z,89.00
2018-11-21T19:53:01.632Z,89.20
2018-11-21T19:55:44.012Z,89.10
2018-11-21T20:01:24.247Z,89.40
2018-11-21T20:04:06.261Z,98.90
2018-11-21T20:06:47.367Z,90.00
2018-11-21T20:09:29.394Z,90.00
2018-11-21T20:12:11.212Z,89.10
2018-11-21T20:14:52.475Z,89.20
2018-11-21T20:17:33.890Z,89.10
2018-11-21T20:20:16.208Z,89.10
2018-11-21T20:22:57.236Z,89.30
2018-11-21T20:25:39.304Z,89.30
2018-11-21T20:31:10.588Z,89.10
2018-11-21T20:33:52.211Z,89.20
2018-11-21T20:36:33.610Z,89.00
2018-11-21T20:39:15.258Z,88.80
2018-11-21T20:41:56.622Z,88.70
2018-11-21T20:47:41.658Z,88.20
2018-11-21T20:50:23.003Z,88.90
2018-11-21T20:53:05.430Z,88.10
2018-11-21T20:55:46.667Z,88.00
2018-11-21T20:58:27.934Z,88.00
2018-11-21T21:01:11.688Z,88.30
2018-11-21T21:03:52.838Z,88.10
2018-11-21T21:06:34.765Z,88.90
2018-11-21T21:09:19.104Z,87.80
2018-11-21T21:12:01.629Z,87.20
2018-11-21T21:14:42.561Z,86.90
2018-11-21T21:17:24.114Z,86.80
2018-11-21T21:20:05.802Z,86.90
2018-11-21T21:25:30.514Z,87.10
2018-11-21T21:31:24.781Z,86.40
2018-11-21T21:34:06.052Z,86.50
2018-11-21T21:36:47.771Z,86.30
2018-11-21T21:39:29.342Z,86.10
2018-11-21T21:45:13.633Z,86.10
2018-11-21T21:47:55.344Z,86.40
2018-11-21T21:50:37.019Z,86.30
2018-11-21T21:53:18.555Z,86.00
2018-11-21T21:55:59.521Z,86.00
2018-11-21T21:58:41.224Z,86.10
2018-11-21T22:10:18.991Z,85.40
2018-11-21T22:13:00.361Z,85.40
2018-11-21T22:15:41.053Z,85.30
2018-11-21T22:18:22.057Z,85.70
2018-11-21T22:24:01.890Z,85.80
2018-11-21T22:26:43.357Z,86.90
2018-11-21T22:29:24.024Z,86.40
2018-11-21T22:32:05.889Z,85.60
2018-11-21T22:34:47.137Z,85.80
2018-11-21T22:40:26.644Z,85.40
2018-11-21T22:43:08.115Z,84.70
2018-11-21T22:45:49.296Z,85.40
2018-11-21T22:48:30.580Z,84.60
2018-11-21T22:51:12.088Z,87.50
2018-11-21T22:53:53.219Z,85.70
2018-11-21T22:56:34.811Z,85.20
2018-11-21T22:59:16.174Z,85.20
2018-11-21T23:01:57.258Z,86.10
2018-11-21T23:04:38.231Z,85.60
2018-11-21T23:07:19.727Z,85.60
2018-11-21T23:10:01.131Z,85.60
2018-11-21T23:12:42.058Z,84.80
2018-11-21T23:15:23.328Z,84.90
2018-11-21T23:18:04.382Z,84.60
2018-11-21T23:20:46.034Z,85.20
2018-11-21T23:23:27.484Z,85.60
2018-11-21T23:26:08.567Z,85.00
2018-11-21T23:31:51.692Z,95.30
2018-11-21T23:34:31.575Z,99.90
2018-11-21T23:37:20.503Z,85.20
2018-11-21T23:40:10.110Z,86.00
2018-11-21T23:42:58.994Z,85.30
2018-11-21T23:45:47.452Z,85.20
2018-11-21T23:48:36.412Z,85.80
2018-11-21T23:54:34.494Z,85.50
